Main page
METAR-TAF:

METAR-TAF

Airports :

Tehran Imam Khomeini International Airport

Tehran, Iran

latitude: 35-24-58N, longitude: 51-09-08E, elevation: 1007 m

Current weather observation

The report was made 24 minutes ago, at 20:30 UTC
Wind 6 kt from the North/Northwest
Temperature 9°C
Humidity 46%
Pressure 1022 hPa
Visibility 10 km or more
no clouds below 1500 m and no cumulonimbus

METAR: OIIE 252030Z 33006KT CAVOK 09/M02 Q1022

Time: 01:24 (20:54 UTC)

Forecast

The report was made 21 hours and 54 minutes ago, at 23:00 UTC
Forecast valid from 25 at 00 UTC to 26 at 06 UTC
Wind 8 kt from the West/Northwest
Visibility 10 km or more
no clouds below 1500 m and no cumulonimbus
Temporary
from 25 at 03 UTC to 25 at 09 UTC
Wind 12 kt from the South/Southeast
Temporary
from 25 at 12 UTC to 25 at 16 UTC
Few clouds at a height of 3500 ft, Towering cumulus.
Scattered clouds at a height of 10000 ft

TAF: OIIE 242300Z 2500/2606 30008KT CAVOK TEMPO 2503/2509 16012KT TEMPO 2512/2516 FEW035TCU SCT100

Weather observations and forecasts of more than 4000 airports (METAR and TAF reports).

The available stations are represented by yellow and red dots on the map.

Hover mouse over dot to see the name of the station.

Then click to see weather observations and forecasts.

To change the map : click on the green buttons with a black cross to zoom in, on the green button with a dash to zoom out, or on the green arrows for adjacent maps.


METAR-TAF: